Time;durP1;ratioP1;P1;durP2;ratioP2;P2;SDS_P1;SDS_P2;PMS_P1;PMS_P2;Temp;Humidity;BMP_temperature;BMP_pressure;BME280_temperature;BME280_humidity;BME280_pressure;Samples;Min_cycle;Max_cycle;Signal;HPM_P1;HPM_P2
2023/01/02 00:00:55;;;;;;;8.63;6.80;;;10.70;99.90;;;;;;5065280;28;20028;-57
2023/01/02 00:03:21;;;;;;;8.57;6.55;;;10.70;99.90;;;;;;5065264;28;20033;-57
2023/01/02 00:05:46;;;;;;;9.20;6.60;;;10.70;99.90;;;;;;5065384;28;20029;-57
2023/01/02 00:08:12;;;;;;;8.38;6.35;;;10.70;99.90;;;;;;5066619;28;20017;-57
2023/01/02 00:10:37;;;;;;;9.55;6.78;;;10.70;99.90;;;;;;5066622;28;20025;-57
2023/01/02 00:13:03;;;;;;;8.55;6.15;;;10.60;99.90;;;;;;5064997;28;20032;-57
2023/01/02 00:15:28;;;;;;;10.60;7.03;;;10.60;99.90;;;;;;5066492;28;20028;-57
2023/01/02 00:17:54;;;;;;;9.07;6.05;;;10.60;99.90;;;;;;5066370;28;20109;-57
2023/01/02 00:20:19;;;;;;;8.48;6.40;;;10.60;99.90;;;;;;5066658;28;20112;-57
2023/01/02 00:22:45;;;;;;;8.15;6.47;;;10.60;99.90;;;;;;5064453;28;20549;-57
2023/01/02 00:25:10;;;;;;;7.95;5.90;;;10.60;99.90;;;;;;5064724;28;20020;-57
2023/01/02 00:27:36;;;;;;;7.68;6.22;;;10.60;99.90;;;;;;5066324;28;20025;-57
2023/01/02 00:30:02;;;;;;;7.85;6.22;;;10.60;99.90;;;;;;5064884;28;20064;-57
2023/01/02 00:32:27;;;;;;;10.00;6.63;;;10.60;99.90;;;;;;5064987;28;20025;-57
2023/01/02 00:34:53;;;;;;;9.70;6.63;;;10.60;99.90;;;;;;5048130;28;20429;-57
2023/01/02 00:37:18;;;;;;;7.75;6.47;;;10.60;99.90;;;;;;5066032;28;20494;-57
2023/01/02 00:39:44;;;;;;;8.27;6.10;;;10.60;99.90;;;;;;5065923;28;20060;-57
2023/01/02 00:42:09;;;;;;;8.70;6.63;;;10.50;99.90;;;;;;5066061;28;20029;-57
2023/01/02 00:44:35;;;;;;;10.63;6.93;;;10.60;99.90;;;;;;5065718;28;20036;-57
2023/01/02 00:47:00;;;;;;;8.70;6.75;;;10.50;99.90;;;;;;5064480;28;20037;-57
2023/01/02 00:49:26;;;;;;;8.15;6.15;;;10.50;99.90;;;;;;5064463;28;20040;-57
2023/01/02 00:51:52;;;;;;;7.85;6.70;;;10.50;99.90;;;;;;5065797;28;20033;-57
2023/01/02 00:54:17;;;;;;;8.65;6.28;;;10.50;99.90;;;;;;5065649;28;20029;-57
2023/01/02 00:56:43;;;;;;;6.40;5.70;;;10.50;99.90;;;;;;5065561;28;20412;-57
2023/01/02 00:59:08;;;;;;;6.75;5.97;;;10.50;99.90;;;;;;5064231;28;20021;-58
2023/01/02 01:01:34;;;;;;;7.68;6.05;;;10.50;99.90;;;;;;5064016;28;20033;-57
2023/01/02 01:03:59;;;;;;;8.90;6.70;;;10.50;99.90;;;;;;5065617;28;20040;-57
2023/01/02 01:06:25;;;;;;;10.45;6.63;;;10.50;99.90;;;;;;5064315;28;20033;-57
2023/01/02 01:08:50;;;;;;;7.78;5.95;;;10.50;99.90;;;;;;5065379;28;20078;-57
2023/01/02 01:11:16;;;;;;;7.85;6.55;;;10.40;99.90;;;;;;5065341;28;20036;-57
2023/01/02 01:13:42;;;;;;;7.70;5.80;;;10.40;99.90;;;;;;5047274;28;20036;-57
2023/01/02 01:16:12;;;;;;;7.63;5.95;;;10.40;99.90;;;;;;5064336;28;20032;-57
2023/01/02 01:18:38;;;;;;;7.47;6.07;;;10.40;99.90;;;;;;5065717;28;20021;-57
2023/01/02 01:21:15;;;;;;;6.75;5.75;;;10.40;99.90;;;;;;5065425;28;20064;-57
2023/01/02 01:23:40;;;;;;;6.97;5.90;;;10.40;99.90;;;;;;5047142;28;20511;-57
2023/01/02 01:26:08;;;;;;;7.45;5.78;;;10.40;99.90;;;;;;5063904;28;20033;-57
2023/01/02 01:28:33;;;;;;;9.57;6.40;;;10.40;99.90;;;;;;5065120;28;20118;-57
2023/01/02 01:31:17;;;;;;;7.43;5.88;;;10.40;99.90;;;;;;5063770;28;20284;-57
2023/01/02 01:33:43;;;;;;;8.77;5.97;;;10.40;99.90;;;;;;5063307;28;20040;-57
2023/01/02 01:36:10;;;;;;;6.65;5.57;;;10.30;99.90;;;;;;5063357;28;20464;-57
2023/01/02 01:38:36;;;;;;;7.95;5.70;;;10.30;99.90;;;;;;5046767;28;20112;-57
2023/01/02 01:41:02;;;;;;;7.43;5.95;;;10.30;99.90;;;;;;5046917;28;20035;-57
2023/01/02 01:43:40;;;;;;;7.43;6.30;;;10.30;99.90;;;;;;5064669;28;20025;-57
2023/01/02 01:46:09;;;;;;;8.85;6.82;;;10.30;99.90;;;;;;5063314;28;20043;-57
2023/01/02 01:48:35;;;;;;;8.07;6.13;;;10.30;99.90;;;;;;5063519;28;20036;-57
2023/01/02 01:51:01;;;;;;;9.38;6.13;;;10.30;99.90;;;;;;5063427;28;20462;-57
2023/01/02 01:53:26;;;;;;;9.65;5.70;;;10.30;99.90;;;;;;5063416;28;20036;-57
2023/01/02 01:55:58;;;;;;;7.60;5.57;;;10.30;99.90;;;;;;5063363;28;20377;-57
2023/01/02 01:58:26;;;;;;;6.25;5.38;;;10.30;99.90;;;;;;5063334;28;20027;-57
2023/01/02 02:00:51;;;;;;;6.47;5.68;;;10.20;99.90;;;;;;5063614;28;20150;-58
2023/01/02 02:03:19;;;;;;;6.60;5.90;;;10.20;99.90;;;;;;5063594;28;20033;-57
2023/01/02 02:05:44;;;;;;;7.40;6.00;;;10.20;99.90;;;;;;5063497;28;20041;-57
2023/01/02 02:08:28;;;;;;;6.30;5.68;;;10.20;99.90;;;;;;5063124;28;20021;-57
2023/01/02 02:10:54;;;;;;;7.25;5.93;;;10.20;99.90;;;;;;5064554;28;20053;-57
2023/01/02 02:13:20;;;;;;;6.25;5.40;;;10.20;99.90;;;;;;5062854;28;20032;-57
2023/01/02 02:16:13;;;;;;;6.95;6.25;;;10.20;99.90;;;;;;5063361;28;20401;-57
2023/01/02 02:19:07;;;;;;;6.35;5.22;;;10.20;99.90;;;;;;5063342;28;20021;-57
2023/01/02 02:21:47;;;;;;;6.90;5.97;;;10.20;99.90;;;;;;5063213;28;20040;-57
2023/01/02 02:24:41;;;;;;;7.60;5.88;;;10.10;99.90;;;;;;5063168;28;20088;-57
2023/01/02 02:27:08;;;;;;;7.40;6.10;;;10.10;99.90;;;;;;5064574;28;20032;-57
2023/01/02 02:29:48;;;;;;;8.85;5.97;;;10.10;99.90;;;;;;5063072;28;20119;-57
2023/01/02 02:32:18;;;;;;;6.70;5.72;;;10.10;99.90;;;;;;5064632;28;20097;-57
2023/01/02 02:35:36;;;;;;;5.97;5.22;;;10.10;99.90;;;;;;5062977;28;20051;-57
2023/01/02 02:38:17;;;;;;;6.22;5.20;;;10.10;99.90;;;;;;5041871;28;20124;-58
2023/01/02 02:41:04;;;;;;;7.28;5.53;;;10.10;99.90;;;;;;5075410;28;20485;-57
2023/01/02 02:43:41;;;;;;;7.63;5.78;;;10.10;99.90;;;;;;5064077;28;20091;-57
2023/01/02 02:46:09;;;;;;;8.57;6.07;;;10.00;99.90;;;;;;5063377;28;20093;-58
2023/01/02 02:49:07;;;;;;;7.25;6.00;;;10.10;99.90;;;;;;5066637;28;20029;-57
2023/01/02 02:51:45;;;;;;;7.68;5.72;;;10.00;99.90;;;;;;5063894;28;20407;-57
2023/01/02 02:54:15;;;;;;;6.72;5.28;;;10.00;99.90;;;;;;5066717;28;20037;-57
2023/01/02 02:56:41;;;;;;;7.45;5.80;;;10.00;99.90;;;;;;5066751;28;20021;-57
2023/01/02 02:59:06;;;;;;;7.70;6.00;;;10.00;99.90;;;;;;5066568;28;20035;-57
2023/01/02 03:01:32;;;;;;;7.53;5.30;;;10.00;99.90;;;;;;5066607;28;20025;-57
2023/01/02 03:03:57;;;;;;;7.53;5.75;;;10.00;99.90;;;;;;5067002;28;20088;-57
2023/01/02 03:06:54;;;;;;;7.22;5.80;;;10.00;99.90;;;;;;5067828;28;20029;-57
2023/01/02 03:09:47;;;;;;;6.25;5.35;;;9.90;99.90;;;;;;5067777;28;20025;-57
2023/01/02 03:12:33;;;;;;;6.97;5.60;;;10.00;99.90;;;;;;5067614;28;20033;-57
2023/01/02 03:15:23;;;;;;;6.57;5.40;;;10.00;99.90;;;;;;5066274;28;20037;-57
2023/01/02 03:18:02;;;;;;;7.85;5.90;;;9.90;99.90;;;;;;5049585;28;20102;-57
2023/01/02 03:20:32;;;;;;;7.07;5.40;;;9.90;99.90;;;;;;5066358;28;20056;-57
2023/01/02 03:23:00;;;;;;;7.15;5.78;;;9.90;99.90;;;;;;5066183;28;20154;-57
2023/01/02 03:25:26;;;;;;;7.40;5.82;;;9.90;99.90;;;;;;5049679;28;20029;-57
2023/01/02 03:27:51;;;;;;;7.35;5.47;;;9.90;99.90;;;;;;5066306;28;20063;-57
2023/01/02 03:30:18;;;;;;;8.48;5.70;;;9.90;99.90;;;;;;5066353;28;20468;-57
2023/01/02 03:33:00;;;;;;;9.20;5.78;;;9.90;99.90;;;;;;5049151;28;20033;-57
2023/01/02 03:35:30;;;;;;;7.93;4.95;;;9.90;99.90;;;;;;5049123;28;20037;-57
2023/01/02 03:37:56;;;;;;;7.30;5.32;;;9.90;99.90;;;;;;5065857;28;20233;-57
2023/01/02 03:40:25;;;;;;;6.57;5.57;;;9.90;99.90;;;;;;5065703;28;20029;-57
2023/01/02 03:43:03;;;;;;;6.63;5.43;;;9.90;99.90;;;;;;5065753;28;20092;-57
2023/01/02 03:45:31;;;;;;;7.10;5.82;;;9.90;99.90;;;;;;5065647;28;20068;-57
2023/01/02 03:48:15;;;;;;;6.95;5.43;;;9.90;99.90;;;;;;5065573;28;20049;-57
2023/01/02 03:50:51;;;;;;;7.13;5.45;;;9.80;99.90;;;;;;5048997;28;20045;-57
2023/01/02 03:53:16;;;;;;;6.63;4.88;;;9.90;99.90;;;;;;5065643;28;20028;-57
2023/01/02 03:55:46;;;;;;;7.53;5.38;;;9.80;99.90;;;;;;5065577;28;20503;-57
2023/01/02 03:58:22;;;;;;;7.20;5.05;;;9.80;99.90;;;;;;5064994;28;20025;-57
2023/01/02 04:00:56;;;;;;;7.40;5.60;;;9.80;99.90;;;;;;5065417;28;20029;-57
2023/01/02 04:03:54;;;;;;;7.95;5.32;;;9.80;99.90;;;;;;5065431;28;20029;-57
2023/01/02 04:06:27;;;;;;;5.70;5.10;;;9.80;99.90;;;;;;5074380;28;20098;-57
2023/01/02 04:09:03;;;;;;;7.18;5.53;;;9.80;99.90;;;;;;5065269;28;20028;-57
2023/01/02 04:11:29;;;;;;;6.82;5.80;;;9.80;99.90;;;;;;5065303;28;20036;-57
2023/01/02 04:13:57;;;;;;;7.10;5.40;;;9.80;99.90;;;;;;5065164;28;20029;-57
2023/01/02 04:16:24;;;;;;;5.93;4.90;;;9.80;99.90;;;;;;5065273;28;20033;-57
2023/01/02 04:18:56;;;;;;;6.25;5.25;;;9.80;99.90;;;;;;5065049;28;20022;-57
2023/01/02 04:21:24;;;;;;;7.43;5.65;;;9.80;99.90;;;;;;5065384;28;20037;-57
2023/01/02 04:24:03;;;;;;;6.95;5.30;;;9.80;99.90;;;;;;5064927;28;20380;-57
2023/01/02 04:26:41;;;;;;;5.25;4.75;;;9.80;99.90;;;;;;5066355;28;20041;-57
2023/01/02 04:29:06;;;;;;;6.65;5.45;;;9.80;99.90;;;;;;5048133;28;20036;-57
2023/01/02 04:31:57;;;;;;;7.55;5.70;;;9.80;99.90;;;;;;5064848;28;20044;-57
2023/01/02 04:34:22;;;;;;;7.13;5.40;;;9.80;99.90;;;;;;5066183;28;20025;-57
2023/01/02 04:36:48;;;;;;;6.18;4.97;;;9.80;99.90;;;;;;5048218;28;20097;-57
2023/01/02 04:39:13;;;;;;;6.85;5.38;;;9.70;99.90;;;;;;5048069;28;20021;-57
2023/01/02 04:41:39;;;;;;;7.32;5.03;;;9.80;99.90;;;;;;5064659;28;20049;-57
2023/01/02 04:44:05;;;;;;;6.57;5.03;;;9.70;99.90;;;;;;5064385;28;20120;-57
2023/01/02 04:46:30;;;;;;;7.05;5.07;;;9.70;99.90;;;;;;5066184;28;20088;-57
2023/01/02 04:48:56;;;;;;;7.60;5.53;;;9.70;99.90;;;;;;5064513;28;20044;-57
2023/01/02 04:51:22;;;;;;;7.55;4.95;;;9.70;99.90;;;;;;5064741;28;20029;-57
2023/01/02 04:53:50;;;;;;;5.13;4.50;;;9.70;99.90;;;;;;5065640;28;20121;-57
2023/01/02 04:56:16;;;;;;;6.07;4.97;;;9.70;99.90;;;;;;5064550;28;20374;-57
2023/01/02 04:58:45;;;;;;;7.18;4.90;;;9.70;99.90;;;;;;5064263;28;20029;-57
2023/01/02 05:01:11;;;;;;;6.15;5.13;;;9.70;99.90;;;;;;5064261;28;20029;-56
2023/01/02 05:03:39;;;;;;;5.97;5.22;;;9.70;99.90;;;;;;5063910;28;20028;-57
2023/01/02 05:06:04;;;;;;;6.38;4.97;;;9.70;99.90;;;;;;5064274;28;20021;-57
2023/01/02 05:08:30;;;;;;;7.07;5.40;;;9.70;99.90;;;;;;5063646;28;20074;-57
2023/01/02 05:10:56;;;;;;;5.82;4.55;;;9.70;99.90;;;;;;5063887;28;20477;-57
2023/01/02 05:13:21;;;;;;;6.35;5.20;;;9.70;99.90;;;;;;5064084;28;20531;-57
2023/01/02 05:15:54;;;;;;;7.07;4.93;;;9.70;99.90;;;;;;5065298;28;20420;-57
2023/01/02 05:18:19;;;;;;;6.53;4.93;;;9.60;99.90;;;;;;5065507;28;20373;-57
2023/01/02 05:20:45;;;;;;;5.47;4.65;;;9.60;99.90;;;;;;5065247;28;20029;-57
2023/01/02 05:25:54;;;;;;;5.43;4.72;;;9.60;99.90;;;;;;5064180;28;20100;-57
2023/01/02 05:28:20;;;;;;;5.97;4.88;;;9.60;99.90;;;;;;5065192;28;20079;-57
2023/01/02 05:30:48;;;;;;;7.72;5.35;;;9.60;99.90;;;;;;5063952;28;20047;-57
2023/01/02 05:33:13;;;;;;;6.32;5.07;;;9.60;99.90;;;;;;5065057;28;20025;-57
2023/01/02 05:35:39;;;;;;;5.55;4.60;;;9.60;99.90;;;;;;5065078;28;20033;-57
2023/01/02 05:38:04;;;;;;;6.22;4.40;;;9.60;99.90;;;;;;5064092;28;20021;-57
2023/01/02 05:40:30;;;;;;;6.07;4.68;;;9.60;99.90;;;;;;5063838;28;20032;-57
2023/01/02 05:42:56;;;;;;;6.15;4.80;;;9.60;99.90;;;;;;5064957;28;20056;-56
2023/01/02 05:45:22;;;;;;;5.28;4.63;;;9.60;99.90;;;;;;5063581;28;20043;-57
2023/01/02 05:47:47;;;;;;;5.72;4.88;;;9.60;99.90;;;;;;5064943;28;20067;-57
2023/01/02 05:50:13;;;;;;;6.40;4.65;;;9.60;99.90;;;;;;5063611;28;20043;-57
2023/01/02 05:52:39;;;;;;;7.50;4.80;;;9.60;99.90;;;;;;5063628;28;20112;-57
2023/01/02 05:55:04;;;;;;;5.05;3.97;;;9.60;99.90;;;;;;5064889;28;20103;-57
2023/01/02 05:57:30;;;;;;;6.82;4.50;;;9.60;99.90;;;;;;5063765;28;20029;-57
2023/01/02 05:59:55;;;;;;;5.00;4.32;;;9.60;99.90;;;;;;5064637;28;20477;-57
2023/01/02 06:02:21;;;;;;;5.78;4.25;;;9.60;99.90;;;;;;5063623;28;20025;-57
2023/01/02 06:04:46;;;;;;;5.57;4.85;;;9.50;99.90;;;;;;5063460;28;20029;-57
2023/01/02 06:07:12;;;;;;;5.45;4.28;;;9.50;99.90;;;;;;5063440;28;20033;-57
2023/01/02 06:09:37;;;;;;;5.13;4.43;;;9.50;99.90;;;;;;5063654;28;20069;-57
2023/01/02 06:12:03;;;;;;;5.40;4.60;;;9.50;99.90;;;;;;5064814;28;20033;-57
2023/01/02 06:14:28;;;;;;;5.47;4.60;;;9.50;99.90;;;;;;5063054;28;20032;-57
2023/01/02 06:16:54;;;;;;;5.95;4.50;;;9.50;99.90;;;;;;5064890;28;20436;-57
2023/01/02 06:19:19;;;;;;;7.00;4.55;;;9.50;99.90;;;;;;5063176;28;20017;-57
2023/01/02 06:21:45;;;;;;;5.03;4.38;;;9.50;99.90;;;;;;5067601;28;20029;-57
2023/01/02 06:24:11;;;;;;;5.22;4.57;;;9.50;99.90;;;;;;5068570;28;20060;-57
2023/01/02 06:26:36;;;;;;;4.60;3.95;;;9.50;99.90;;;;;;5067086;28;20040;-57
2023/01/02 06:29:02;;;;;;;5.28;4.72;;;9.50;99.90;;;;;;5067245;28;20029;-57
2023/01/02 06:31:28;;;;;;;5.07;4.18;;;9.50;99.90;;;;;;5050356;28;20116;-57
2023/01/02 06:33:54;;;;;;;4.57;4.07;;;9.50;99.90;;;;;;5066893;28;20037;-57
2023/01/02 06:36:20;;;;;;;5.20;4.35;;;9.50;99.90;;;;;;5067278;28;20036;-57
2023/01/02 06:38:46;;;;;;;4.68;3.92;;;9.50;99.90;;;;;;5066902;28;20039;-57
2023/01/02 06:41:12;;;;;;;5.30;4.28;;;9.50;99.90;;;;;;5068310;28;20040;-56
2023/01/02 06:43:41;;;;;;;6.28;4.10;;;9.50;99.90;;;;;;5068118;28;20036;-57
2023/01/02 06:46:07;;;;;;;6.10;4.22;;;9.50;99.90;;;;;;5067014;28;20079;-57
2023/01/02 06:48:33;;;;;;;6.53;4.28;;;9.40;99.90;;;;;;5066978;28;20029;-57
2023/01/02 06:50:58;;;;;;;5.43;4.13;;;9.40;99.90;;;;;;5066767;28;20029;-57
2023/01/02 06:53:25;;;;;;;4.38;3.92;;;9.40;99.90;;;;;;5066814;28;20036;-57
2023/01/02 06:55:57;;;;;;;5.70;4.38;;;9.40;99.90;;;;;;5066943;28;20615;-57
2023/01/02 06:58:23;;;;;;;5.85;4.72;;;9.40;99.90;;;;;;5066546;28;20110;-57
2023/01/02 07:00:49;;;;;;;5.25;4.05;;;9.40;99.90;;;;;;5066813;28;20075;-57
2023/01/02 07:03:15;;;;;;;4.35;3.92;;;9.40;99.90;;;;;;5066543;28;20489;-57
2023/01/02 07:05:40;;;;;;;4.40;3.88;;;9.40;99.90;;;;;;5066346;28;20090;-57
2023/01/02 07:08:06;;;;;;;6.15;4.07;;;9.40;99.90;;;;;;5067971;28;20029;-57
2023/01/02 07:10:31;;;;;;;4.78;4.28;;;9.40;99.90;;;;;;5066513;28;20467;-57
2023/01/02 07:12:57;;;;;;;8.07;5.10;;;9.40;99.90;;;;;;5049441;28;20083;-57
2023/01/02 07:15:22;;;;;;;5.30;4.28;;;9.40;99.90;;;;;;5067752;28;20059;-57
2023/01/02 07:17:48;;;;;;;5.40;3.97;;;9.40;99.90;;;;;;5067797;28;20028;-57
2023/01/02 07:20:14;;;;;;;5.28;4.13;;;9.40;99.90;;;;;;5067775;28;20029;-57
2023/01/02 07:22:39;;;;;;;5.80;4.40;;;9.40;99.90;;;;;;5066348;28;20098;-57
2023/01/02 07:25:05;;;;;;;5.22;4.32;;;9.30;99.90;;;;;;5067498;28;20037;-57
2023/01/02 07:27:31;;;;;;;5.18;4.10;;;9.30;99.90;;;;;;5067662;28;20036;-57
2023/01/02 07:29:56;;;;;;;5.45;4.18;;;9.30;99.90;;;;;;5066109;28;20025;-57
2023/01/02 07:32:22;;;;;;;4.40;3.90;;;9.30;99.90;;;;;;5065552;28;20040;-57
2023/01/02 07:34:48;;;;;;;5.57;4.40;;;9.30;99.90;;;;;;5066001;28;20029;-57
2023/01/02 07:37:13;;;;;;;4.32;3.92;;;9.30;99.90;;;;;;5065926;28;20543;-57
2023/01/02 07:39:39;;;;;;;4.70;4.18;;;9.30;99.90;;;;;;5066001;28;20029;-57
2023/01/02 07:42:04;;;;;;;6.05;4.32;;;9.30;99.90;;;;;;5066082;28;20033;-57
2023/01/02 07:44:30;;;;;;;5.13;4.03;;;9.30;99.90;;;;;;5065959;28;20041;-57
2023/01/02 07:46:55;;;;;;;5.28;3.90;;;9.30;99.90;;;;;;5067691;28;20097;-57
2023/01/02 07:49:21;;;;;;;5.03;4.38;;;9.30;99.90;;;;;;5065728;28;20461;-57
2023/01/02 07:51:46;;;;;;;4.35;3.70;;;9.30;99.90;;;;;;5067146;28;20025;-57
2023/01/02 07:54:12;;;;;;;6.97;4.25;;;9.30;99.90;;;;;;5049033;28;20028;-57
2023/01/02 07:56:38;;;;;;;5.72;4.00;;;9.30;99.90;;;;;;5067042;28;20040;-57
2023/01/02 07:59:03;;;;;;;5.50;3.83;;;9.30;99.90;;;;;;5065709;28;20025;-57
2023/01/02 08:01:29;;;;;;;5.18;4.10;;;9.30;99.90;;;;;;5065575;28;20021;-57
2023/01/02 08:03:54;;;;;;;5.88;4.25;;;9.30;99.90;;;;;;5065417;28;20040;-57
2023/01/02 08:06:20;;;;;;;4.63;3.65;;;9.30;99.90;;;;;;5065622;28;20036;-54
2023/01/02 08:08:45;;;;;;;7.53;4.70;;;9.30;99.90;;;;;;5065361;28;20037;-55
2023/01/02 08:11:13;;;;;;;4.28;3.85;;;9.30;99.90;;;;;;5065380;28;20052;-54
2023/01/02 08:13:38;;;;;;;5.25;4.03;;;9.30;99.90;;;;;;5065307;28;20033;-54
2023/01/02 08:16:14;;;;;;;6.28;4.05;;;9.30;99.90;;;;;;5066661;28;20029;-55
2023/01/02 08:18:40;;;;;;;4.63;3.90;;;9.30;99.90;;;;;;5065348;28;20127;-54
2023/01/02 08:21:06;;;;;;;4.50;3.67;;;9.30;99.90;;;;;;5066479;28;20060;-54
2023/01/02 08:23:31;;;;;;;4.40;3.50;;;9.30;99.90;;;;;;5064972;28;20096;-54
2023/01/02 08:25:58;;;;;;;5.45;4.13;;;9.30;99.90;;;;;;5048489;28;20029;-54
2023/01/02 08:28:24;;;;;;;5.88;3.80;;;9.30;99.90;;;;;;5065100;28;20053;-57
2023/01/02 08:30:49;;;;;;;5.25;4.40;;;9.30;99.90;;;;;;5064882;28;20040;-57
2023/01/02 08:33:15;;;;;;;6.25;4.20;;;9.30;99.90;;;;;;5066263;28;20962;-57
2023/01/02 08:35:40;;;;;;;4.78;3.65;;;9.30;99.90;;;;;;5066223;28;20037;-57
2023/01/02 08:38:06;;;;;;;6.07;4.18;;;9.30;99.90;;;;;;5064543;28;20499;-57
2023/01/02 08:40:32;;;;;;;4.93;4.07;;;9.30;99.90;;;;;;5066078;28;20059;-57
2023/01/02 08:42:57;;;;;;;5.82;4.15;;;9.30;99.90;;;;;;5064298;28;20032;-57
2023/01/02 08:45:23;;;;;;;4.10;3.58;;;9.30;99.90;;;;;;5064540;28;20044;-57
2023/01/02 08:47:48;;;;;;;4.82;4.20;;;9.30;99.90;;;;;;5064541;28;20021;-57
2023/01/02 08:50:14;;;;;;;5.32;4.00;;;9.30;99.90;;;;;;5064564;28;20043;-57
2023/01/02 08:52:39;;;;;;;5.78;4.32;;;9.30;99.90;;;;;;5066437;28;20040;-57
2023/01/02 08:55:05;;;;;;;5.30;3.95;;;9.30;99.90;;;;;;5064190;28;20124;-57
2023/01/02 08:57:31;;;;;;;5.43;4.25;;;9.30;99.90;;;;;;5065992;28;20025;-57
2023/01/02 08:59:56;;;;;;;4.47;3.90;;;9.30;99.90;;;;;;5064595;28;20056;-57
2023/01/02 09:02:22;;;;;;;4.63;3.72;;;9.30;99.90;;;;;;5065812;28;20021;-57
2023/01/02 09:04:47;;;;;;;6.20;3.88;;;9.40;99.90;;;;;;5064424;28;20040;-57
2023/01/02 09:07:13;;;;;;;5.20;4.15;;;9.40;99.90;;;;;;5064140;28;20033;-57
2023/01/02 09:09:38;;;;;;;4.88;4.30;;;9.40;99.90;;;;;;5064134;28;20044;-57
2023/01/02 09:12:04;;;;;;;4.32;3.92;;;9.40;99.90;;;;;;5047511;28;20421;-57
2023/01/02 09:14:30;;;;;;;4.28;3.70;;;9.40;99.90;;;;;;5065292;28;20063;-57
2023/01/02 09:16:56;;;;;;;5.75;4.30;;;9.40;99.90;;;;;;5064248;28;20033;-57
2023/01/02 09:19:25;;;;;;;5.93;4.28;;;9.40;99.90;;;;;;5064026;28;20347;-57
2023/01/02 09:21:51;;;;;;;4.70;4.00;;;9.40;99.90;;;;;;5064058;28;20135;-57
2023/01/02 09:24:17;;;;;;;4.85;3.75;;;9.40;99.90;;;;;;5064019;28;20029;-57
2023/01/02 09:26:42;;;;;;;8.90;4.35;;;9.50;99.90;;;;;;5063794;28;20025;-57
2023/01/02 09:29:09;;;;;;;4.53;4.00;;;9.40;99.90;;;;;;5063723;28;20028;-57
2023/01/02 09:31:35;;;;;;;5.05;4.43;;;9.50;99.90;;;;;;5064026;28;20029;-57
2023/01/02 09:34:01;;;;;;;5.88;4.22;;;9.50;99.90;;;;;;5063752;28;20037;-57
2023/01/02 09:36:26;;;;;;;4.50;3.80;;;9.50;99.90;;;;;;5064077;28;20021;-57
2023/01/02 09:38:53;;;;;;;6.40;3.90;;;9.50;99.90;;;;;;5063670;28;20079;-57
2023/01/02 09:41:35;;;;;;;5.32;4.10;;;9.50;99.90;;;;;;5065180;28;20025;-57
2023/01/02 09:44:29;;;;;;;5.10;4.07;;;9.50;99.90;;;;;;5046973;28;20036;-57
2023/01/02 09:47:11;;;;;;;4.18;3.78;;;9.50;99.90;;;;;;5056264;28;20072;-57
2023/01/02 09:49:53;;;;;;;6.30;4.65;;;9.50;99.90;;;;;;5046955;28;20032;-56
2023/01/02 09:52:34;;;;;;;5.32;3.97;;;9.60;99.90;;;;;;5063666;28;20031;-57
2023/01/02 09:55:00;;;;;;;5.40;4.45;;;9.50;99.90;;;;;;5063333;28;20178;-57
2023/01/02 09:57:25;;;;;;;4.65;3.45;;;9.60;99.90;;;;;;5063916;28;20113;-57
2023/01/02 10:00:00;;;;;;;4.75;4.00;;;9.60;99.90;;;;;;5064982;28;20033;-57
2023/01/02 10:02:45;;;;;;;5.32;4.15;;;9.60;99.90;;;;;;5065136;28;20029;-57
2023/01/02 10:05:35;;;;;;;4.50;3.75;;;9.60;99.90;;;;;;5063509;28;20029;-57
2023/01/02 10:08:23;;;;;;;7.55;4.40;;;9.60;99.90;;;;;;5064785;28;20484;-57
2023/01/02 10:11:04;;;;;;;8.70;4.63;;;9.60;99.90;;;;;;5063793;28;20065;-57
2023/01/02 10:13:46;;;;;;;4.88;4.05;;;9.70;99.90;;;;;;5063474;28;20044;-56
2023/01/02 10:16:17;;;;;;;4.78;4.10;;;9.70;99.90;;;;;;5063520;28;20029;-56
2023/01/02 10:18:43;;;;;;;5.38;3.92;;;9.70;99.90;;;;;;5063371;28;20202;-57
2023/01/02 10:21:14;;;;;;;5.15;3.95;;;9.70;99.90;;;;;;5063460;28;20033;-56
2023/01/02 10:24:00;;;;;;;4.97;4.32;;;9.70;99.90;;;;;;5063305;28;20021;-57
2023/01/02 10:26:30;;;;;;;4.13;3.55;;;9.70;99.90;;;;;;5063253;28;20029;-57
2023/01/02 10:29:25;;;;;;;4.80;3.83;;;9.70;99.90;;;;;;5063284;28;20039;-56
2023/01/02 10:31:54;;;;;;;7.80;4.20;;;9.80;99.90;;;;;;5063624;28;20055;-57
2023/01/02 10:34:22;;;;;;;4.78;4.13;;;9.80;99.90;;;;;;5063122;28;20039;-57
2023/01/02 10:36:48;;;;;;;9.50;3.90;;;9.80;99.90;;;;;;5046489;28;20033;-56
2023/01/02 10:39:21;;;;;;;5.07;3.97;;;9.80;99.90;;;;;;5063157;28;20064;-57
2023/01/02 10:41:49;;;;;;;5.68;4.38;;;9.80;99.90;;;;;;5063235;28;20025;-57
2023/01/02 10:44:25;;;;;;;4.43;4.03;;;9.80;99.90;;;;;;5062964;28;20029;-56
2023/01/02 10:46:50;;;;;;;4.43;4.00;;;9.80;99.90;;;;;;5063235;28;20025;-57
2023/01/02 10:49:16;;;;;;;4.57;3.90;;;9.80;99.90;;;;;;5064568;28;20162;-57
2023/01/02 10:52:03;;;;;;;6.35;4.20;;;9.80;99.90;;;;;;5063145;28;20033;-56
2023/01/02 10:54:28;;;;;;;5.38;4.10;;;9.80;99.90;;;;;;5062966;28;20076;-56
2023/01/02 10:56:56;;;;;;;6.57;4.00;;;9.80;99.90;;;;;;5062933;28;20025;-57
2023/01/02 10:59:24;;;;;;;5.53;4.07;;;9.90;99.90;;;;;;5063123;28;20116;-56
2023/01/02 11:01:51;;;;;;;5.80;4.13;;;9.90;99.90;;;;;;5063129;28;20072;-56
2023/01/02 11:04:20;;;;;;;6.32;4.13;;;9.90;99.90;;;;;;5062914;28;20041;-57
2023/01/02 11:07:00;;;;;;;6.00;4.05;;;9.90;99.90;;;;;;5064306;28;20033;-56
2023/01/02 11:09:30;;;;;;;5.70;4.43;;;9.90;99.90;;;;;;5049916;28;20137;-56
2023/01/02 11:12:06;;;;;;;4.78;4.25;;;9.90;99.90;;;;;;5066578;28;20039;-57
2023/01/02 11:14:33;;;;;;;4.68;4.00;;;9.90;99.90;;;;;;5051090;28;20029;-56
2023/01/02 11:17:21;;;;;;;5.22;3.97;;;9.90;99.90;;;;;;5067837;28;20025;-56
2023/01/02 11:19:52;;;;;;;5.38;4.18;;;9.90;99.90;;;;;;5066477;28;20025;-57
2023/01/02 11:22:19;;;;;;;5.05;4.10;;;9.90;99.90;;;;;;5066534;28;20107;-56
2023/01/02 11:24:58;;;;;;;6.40;4.03;;;9.90;99.90;;;;;;5066375;28;20032;-57
2023/01/02 11:27:44;;;;;;;5.93;4.22;;;9.90;99.90;;;;;;5049652;28;20032;-56
2023/01/02 11:30:28;;;;;;;4.57;4.13;;;9.90;99.90;;;;;;5067466;28;20508;-56
2023/01/02 11:33:23;;;;;;;5.18;4.32;;;10.00;99.90;;;;;;5066105;28;20033;-57
2023/01/02 11:36:01;;;;;;;5.88;4.07;;;10.00;99.90;;;;;;5066204;28;20552;-57
2023/01/02 11:38:38;;;;;;;4.65;4.22;;;10.00;99.90;;;;;;5066044;28;20028;-56
2023/01/02 11:41:04;;;;;;;5.57;4.70;;;10.00;99.90;;;;;;5065981;28;20036;-56
2023/01/02 11:43:47;;;;;;;5.38;4.45;;;10.00;99.90;;;;;;5065849;28;20021;-57
2023/01/02 11:46:30;;;;;;;5.82;4.35;;;10.00;99.90;;;;;;5065910;28;20561;-56
2023/01/02 11:49:04;;;;;;;6.00;4.30;;;10.00;99.90;;;;;;5065869;28;20032;-56
2023/01/02 11:51:32;;;;;;;5.80;4.45;;;10.00;99.90;;;;;;5048960;28;20029;-57
2023/01/02 11:53:57;;;;;;;5.75;4.45;;;10.00;99.90;;;;;;5065828;28;20025;-56
2023/01/02 11:56:34;;;;;;;5.05;4.13;;;10.00;99.90;;;;;;5065557;28;20117;-56
2023/01/02 11:59:12;;;;;;;6.60;4.72;;;10.10;99.90;;;;;;5065682;28;20017;-56
2023/01/02 12:02:00;;;;;;;6.13;4.90;;;10.10;99.90;;;;;;5049417;28;20055;-56
2023/01/02 12:04:26;;;;;;;6.65;4.40;;;10.10;99.90;;;;;;5066172;28;20083;-56
2023/01/02 12:07:13;;;;;;;5.53;3.97;;;10.10;99.90;;;;;;5065638;28;20033;-56
2023/01/02 12:09:53;;;;;;;5.50;4.25;;;10.10;99.90;;;;;;5065596;28;20072;-56
2023/01/02 12:12:43;;;;;;;5.70;4.20;;;10.10;99.90;;;;;;5066824;28;20097;-56
2023/01/02 12:15:16;;;;;;;7.60;4.63;;;10.10;99.90;;;;;;5066978;28;20060;-57
2023/01/02 12:17:54;;;;;;;5.80;4.43;;;10.10;99.90;;;;;;5065288;28;20059;-57
2023/01/02 12:20:26;;;;;;;5.88;4.15;;;10.10;99.90;;;;;;5065346;28;20024;-56
2023/01/02 12:23:03;;;;;;;6.80;4.90;;;10.10;99.90;;;;;;5066674;28;20089;-56
2023/01/02 12:25:50;;;;;;;5.85;4.28;;;10.10;99.90;;;;;;5066738;28;20033;-56
2023/01/02 12:28:48;;;;;;;5.88;3.97;;;10.10;99.90;;;;;;5066545;28;20049;-57
2023/01/02 12:31:32;;;;;;;5.50;4.25;;;10.20;99.90;;;;;;5065207;28;20043;-57
2023/01/02 12:34:03;;;;;;;6.65;4.32;;;10.20;99.90;;;;;;5066527;28;20024;-56
2023/01/02 12:36:50;;;;;;;6.50;4.53;;;10.20;99.90;;;;;;5065074;28;20037;-56
2023/01/02 12:39:39;;;;;;;6.32;4.45;;;10.20;99.90;;;;;;5065064;28;20385;-57
2023/01/02 12:42:16;;;;;;;5.40;4.13;;;10.20;99.90;;;;;;5050928;28;20119;-57
2023/01/02 12:44:50;;;;;;;6.13;4.45;;;10.20;99.90;;;;;;5066049;28;20036;-57
2023/01/02 12:47:15;;;;;;;5.85;4.28;;;10.20;99.90;;;;;;5065381;28;20036;-56
2023/01/02 12:50:12;;;;;;;5.60;3.88;;;10.30;99.90;;;;;;5066414;28;20101;-57
2023/01/02 12:53:01;;;;;;;6.30;3.95;;;10.30;99.90;;;;;;5065113;28;20036;-57
2023/01/02 12:55:38;;;;;;;5.50;3.80;;;10.30;99.90;;;;;;5065941;28;20029;-56
2023/01/02 12:58:19;;;;;;;5.15;4.07;;;10.30;99.90;;;;;;5064529;28;20112;-56
2023/01/02 13:01:04;;;;;;;5.75;3.90;;;10.30;99.90;;;;;;5065789;28;20025;-56
2023/01/02 13:03:32;;;;;;;7.40;4.32;;;10.30;99.90;;;;;;5064353;28;20096;-56
2023/01/02 13:06:19;;;;;;;6.95;3.97;;;10.30;99.90;;;;;;5065897;28;20461;-56
2023/01/02 13:08:50;;;;;;;5.03;3.92;;;10.30;99.90;;;;;;5064331;28;20036;-56
2023/01/02 13:11:35;;;;;;;4.65;3.70;;;10.30;99.90;;;;;;5064403;28;20072;-56
2023/01/02 13:14:01;;;;;;;6.03;4.05;;;10.30;99.90;;;;;;5047623;28;20037;-56